Terminal Aerodrome Forecast
Issued by NWS Bismarck, ND

Home | Current Version | Previous Version | Graphics & Text | Print | Product List | Glossary On
Versions: 1 2 3 4 5 6 7 8 9 10 11 12 13 14 15 16 17 18 19 20 21 22 23 24 25 26 27 28
028
FTUS43 KBIS 241737 AAB
TAFBIS
TAF AMD
KBIS 241737Z 2418/2518 VRB04KT P6SM SCT150
     FM250000 VRB04KT P6SM VCTS BKN200CB
     FM250300 08004KT P6SM -TSRA OVC040CB
     FM251500 10007KT P6SM -SHRA VCTS BKN045CB=

USA.gov is the U.S. government's official web portal to all federal, state and local government web resources and services.